Dows, Iowa
Current Conditions -  °F | °C
As of 10:55 PM on Sunday 21 Dec 2014 (Local Time) from KCAV Reporting Station
Haze Haze  
Wind Chill: 30°   Ceiling: 700
Heat Index: 39°   Visibility: 3mi
Dew Point: 39°   Wind: 17mph
Humidity: 100%   Direction: 160°SSE
Pressure: 29.72"   Gusts: NA
Location:  42.66°N, 93.5°W
Report Text: KCAV 220455Z AUTO 16015KT 3SM BR OVC007 04/04 A2972 RMK AO2
Loading
Personal Weather Stations






























Interactive Weather Map New forecast layout! Learn more

10-Day Weather Forecast

Advertisements
Track Severe Weather on mobile